Terminal Aerodrome Forecast
Issued by NWS Wilmington, OH

Current Version | Previous Version | Text Only | Print | Product List | Glossary Off
Versions: 1 2 3 4 5 6 7 8 9 10 11 12 13 14 15

000
FTUS41 KILN 192057 AAA
TAFDAY
TAF AMD
KDAY 192057Z 1921/2018 21014G22KT P6SM BKN250
     FM192300 22014KT P6SM SCT250
     FM201700 23011KT P6SM BKN020=

USA.gov is the U.S. government's official web portal to all federal, state and local government web resources and services.